Time;durP1;ratioP1;P1;durP2;ratioP2;P2;SDS_P1;SDS_P2;PMS_P1;PMS_P2;Temp;Humidity;BMP_temperature;BMP_pressure;BME280_temperature;BME280_humidity;BME280_pressure;Samples;Min_cycle;Max_cycle;Signal;HPM_P1;HPM_P2
2022/02/12 00:00:56;;;;;;;4.15;1.15;;;26.50;99.90;;;;;;5073274;28;20036;-74
2022/02/12 00:03:25;;;;;;;6.38;1.05;;;26.20;99.90;;;;;;5071514;28;20040;-74
2022/02/12 00:05:52;;;;;;;4.70;0.95;;;25.50;99.90;;;;;;5071635;28;20371;-73
2022/02/12 00:08:19;;;;;;;6.60;1.35;;;25.30;99.90;;;;;;5072915;28;20509;-74
2022/02/12 00:10:47;;;;;;;5.55;1.00;;;25.50;99.90;;;;;;5071570;28;20107;-74
2022/02/12 00:13:14;;;;;;;4.93;1.08;;;25.90;99.90;;;;;;5071595;28;20031;-74
2022/02/12 00:15:42;;;;;;;7.20;1.20;;;26.00;99.90;;;;;;5072816;28;20070;-74
2022/02/12 00:18:11;;;;;;;9.10;1.80;;;26.00;99.90;;;;;;5074073;28;20401;-74
2022/02/12 00:20:41;;;;;;;7.60;1.30;;;25.90;99.90;;;;;;5076546;28;20367;-75
2022/02/12 00:23:09;;;;;;;6.82;1.35;;;25.40;99.90;;;;;;5076561;28;20017;-75
2022/02/12 00:25:36;;;;;;;4.70;1.02;;;25.10;99.90;;;;;;5076613;28;20037;-75
2022/02/12 00:28:04;;;;;;;4.85;1.10;;;25.00;99.90;;;;;;5076782;28;20082;-75
2022/02/12 00:30:31;;;;;;;4.97;1.20;;;24.90;99.90;;;;;;5076573;28;20104;-74
2022/02/12 00:32:58;;;;;;;5.53;1.58;;;24.90;99.90;;;;;;5076405;28;20032;-74
2022/02/12 00:35:26;;;;;;;4.22;0.90;;;25.00;99.90;;;;;;5076305;28;20025;-74
2022/02/12 00:37:53;;;;;;;4.95;1.02;;;25.40;99.90;;;;;;5076258;28;20090;-74
2022/02/12 00:40:22;;;;;;;5.05;1.35;;;26.00;99.90;;;;;;5076207;28;20013;-74
2022/02/12 00:42:50;;;;;;;4.60;0.82;;;26.30;99.90;;;;;;5075087;28;20024;-73
2022/02/12 00:45:18;;;;;;;5.50;1.17;;;26.10;99.90;;;;;;5074702;28;20028;-74
2022/02/12 00:47:46;;;;;;;5.80;1.08;;;26.30;99.90;;;;;;5074897;28;20021;-75
2022/02/12 00:50:14;;;;;;;7.20;1.38;;;26.50;99.90;;;;;;5076073;28;20097;-74
2022/02/12 00:52:41;;;;;;;5.30;1.35;;;26.70;99.90;;;;;;5076257;28;20063;-73
2022/02/12 00:55:09;;;;;;;7.35;1.13;;;26.50;99.90;;;;;;5076028;28;20036;-73
2022/02/12 00:57:36;;;;;;;8.10;1.33;;;26.80;99.90;;;;;;5076167;28;20031;-75
2022/02/12 01:00:05;;;;;;;6.68;1.17;;;26.80;99.90;;;;;;5074728;28;20031;-73
2022/02/12 01:02:32;;;;;;;5.53;1.10;;;26.80;99.90;;;;;;5075936;28;20020;-75
2022/02/12 01:04:59;;;;;;;8.85;2.15;;;26.60;99.90;;;;;;5075798;28;20436;-74
2022/02/12 01:07:27;;;;;;;6.13;1.42;;;26.60;99.90;;;;;;5075652;28;20078;-74
2022/02/12 01:09:54;;;;;;;4.47;1.17;;;26.50;99.90;;;;;;5075904;28;20028;-74
2022/02/12 01:12:21;;;;;;;10.00;1.35;;;26.10;99.90;;;;;;5075700;28;20132;-74
2022/02/12 01:14:49;;;;;;;7.13;1.42;;;25.80;99.90;;;;;;5074347;28;20029;-73
2022/02/12 01:17:16;;;;;;;5.13;0.98;;;26.00;99.90;;;;;;5075736;28;20036;-73
2022/02/12 01:19:43;;;;;;;7.20;1.45;;;26.00;99.90;;;;;;5074352;28;20115;-74
2022/02/12 01:22:11;;;;;;;5.65;1.58;;;26.50;99.90;;;;;;5075477;28;20078;-74
2022/02/12 01:24:39;;;;;;;7.00;1.42;;;25.90;99.90;;;;;;5075296;28;20040;-73
2022/02/12 01:27:06;;;;;;;3.97;0.95;;;26.10;99.90;;;;;;5075328;28;20024;-74
2022/02/12 01:29:34;;;;;;;8.65;1.33;;;26.20;99.90;;;;;;5074208;28;20393;-73
2022/02/12 01:32:04;;;;;;;7.82;1.50;;;26.30;99.90;;;;;;5075490;28;20028;-74
2022/02/12 01:34:36;;;;;;;9.73;1.90;;;26.00;99.90;;;;;;5074256;28;20029;-74
2022/02/12 01:37:05;;;;;;;7.38;1.33;;;25.80;99.90;;;;;;5073996;28;20439;-74
2022/02/12 01:39:33;;;;;;;4.47;1.10;;;25.50;99.90;;;;;;5073963;28;20028;-75
2022/02/12 01:42:01;;;;;;;5.18;1.35;;;25.50;99.90;;;;;;5073870;28;20021;-74
2022/02/12 01:44:34;;;;;;;6.50;1.30;;;25.70;99.90;;;;;;5075265;28;20021;-74
2022/02/12 01:47:03;;;;;;;7.40;1.30;;;25.80;99.90;;;;;;5073722;28;20474;-74
2022/02/12 01:49:31;;;;;;;5.40;1.42;;;25.80;99.90;;;;;;5075066;28;20101;-73
2022/02/12 01:52:00;;;;;;;5.82;1.27;;;25.70;99.90;;;;;;5074871;28;20099;-74
2022/02/12 01:54:29;;;;;;;6.80;1.35;;;25.80;99.90;;;;;;5075038;28;20028;-75
2022/02/12 01:56:58;;;;;;;8.68;1.70;;;25.80;99.90;;;;;;5073522;28;20464;-73
2022/02/12 01:59:27;;;;;;;9.70;1.80;;;25.70;99.90;;;;;;5074860;28;20398;-74
2022/02/12 02:01:55;;;;;;;4.72;1.15;;;25.60;99.90;;;;;;5073490;28;20184;-75
2022/02/12 02:04:23;;;;;;;6.53;1.25;;;25.50;99.90;;;;;;5073474;28;20120;-76
2022/02/12 02:06:51;;;;;;;9.32;1.92;;;25.50;99.90;;;;;;5074889;28;20056;-73
2022/02/12 02:09:19;;;;;;;9.07;1.15;;;25.30;99.90;;;;;;5073440;28;20016;-74
2022/02/12 02:11:47;;;;;;;7.88;1.38;;;25.20;99.90;;;;;;5073462;28;20028;-74
2022/02/12 02:14:16;;;;;;;9.13;2.03;;;25.00;99.90;;;;;;5074649;28;20055;-73
2022/02/12 02:16:44;;;;;;;6.88;1.33;;;24.60;99.90;;;;;;5074538;28;20044;-74
2022/02/12 02:19:13;;;;;;;10.00;2.17;;;24.30;99.90;;;;;;5074580;28;20074;-74
2022/02/12 02:21:41;;;;;;;10.95;2.50;;;23.70;99.90;;;;;;5073050;28;20031;-73
2022/02/12 02:24:09;;;;;;;13.80;2.25;;;23.40;99.90;;;;;;5074172;28;20493;-76
2022/02/12 02:26:37;;;;;;;9.27;1.80;;;23.00;99.90;;;;;;5073055;28;20028;-75
2022/02/12 02:29:05;;;;;;;13.10;3.50;;;22.90;99.90;;;;;;5072818;28;20021;-75
2022/02/12 02:31:32;;;;;;;11.70;2.83;;;22.80;99.90;;;;;;5073154;28;20451;-74
2022/02/12 02:34:06;;;;;;;13.35;3.55;;;23.00;99.90;;;;;;5072858;28;20393;-75
2022/02/12 02:36:34;;;;;;;14.80;2.80;;;22.70;99.90;;;;;;5074095;28;20028;-74
2022/02/12 02:39:01;;;;;;;11.48;2.70;;;22.50;99.90;;;;;;5074239;28;20025;-74
2022/02/12 02:41:28;;;;;;;10.43;2.58;;;22.10;99.90;;;;;;5073649;28;20484;-75
2022/02/12 02:43:56;;;;;;;11.90;3.30;;;21.90;99.90;;;;;;5074026;28;20095;-74
2022/02/12 02:46:23;;;;;;;7.53;2.15;;;21.70;99.90;;;;;;5072891;28;20424;-74
2022/02/12 02:48:50;;;;;;;9.75;3.20;;;21.30;99.90;;;;;;5072505;28;20028;-74
2022/02/12 02:56:57;;;;;;;8.07;2.40;;;20.90;99.90;;;;;;5065145;28;20033;-75
2022/02/12 02:59:24;;;;;;;9.38;2.42;;;20.90;99.90;;;;;;5072465;28;20115;-75
2022/02/12 03:01:54;;;;;;;7.85;1.92;;;20.90;99.90;;;;;;5073954;28;20021;-75
2022/02/12 03:04:23;;;;;;;10.00;2.80;;;21.10;99.90;;;;;;5073801;28;20019;-76
2022/02/12 03:06:51;;;;;;;8.52;2.17;;;21.40;99.90;;;;;;5072469;28;20051;-75
2022/02/12 03:09:21;;;;;;;7.30;2.42;;;21.70;99.90;;;;;;5073575;28;20036;-76
2022/02/12 03:11:49;;;;;;;13.40;3.28;;;21.50;99.90;;;;;;5072480;28;20074;-76
2022/02/12 03:14:16;;;;;;;7.35;2.22;;;21.70;99.90;;;;;;5073412;28;20020;-76
2022/02/12 03:16:43;;;;;;;9.13;2.03;;;21.70;99.90;;;;;;5073282;28;20032;-74
2022/02/12 03:19:11;;;;;;;9.68;2.47;;;22.00;99.90;;;;;;5073564;28;20477;-75
2022/02/12 03:21:38;;;;;;;6.38;1.95;;;22.30;99.90;;;;;;5073500;28;20362;-75
2022/02/12 03:24:05;;;;;;;7.60;2.42;;;22.20;99.90;;;;;;5071987;28;20044;-75
2022/02/12 03:26:33;;;;;;;6.75;2.40;;;22.20;99.90;;;;;;5072093;28;20017;-75
2022/02/12 03:29:03;;;;;;;7.43;2.28;;;22.20;99.90;;;;;;5073124;28;20064;-75
2022/02/12 03:31:30;;;;;;;10.20;2.30;;;21.80;99.90;;;;;;5073286;28;20074;-74
2022/02/12 03:33:57;;;;;;;9.50;2.72;;;21.70;99.90;;;;;;5071989;28;20028;-75
2022/02/12 03:36:25;;;;;;;8.52;2.22;;;21.70;99.90;;;;;;5073282;28;20381;-76
2022/02/12 03:38:52;;;;;;;8.35;2.03;;;21.80;99.90;;;;;;5071990;28;20032;-75
2022/02/12 03:41:19;;;;;;;10.63;2.90;;;21.90;99.90;;;;;;5073220;28;20027;-75
2022/02/12 03:43:47;;;;;;;6.38;2.25;;;22.20;99.90;;;;;;5073326;28;20078;-76
2022/02/12 03:46:14;;;;;;;10.88;2.50;;;22.00;99.90;;;;;;5071664;28;20024;-76
2022/02/12 03:48:42;;;;;;;7.40;1.75;;;22.10;99.90;;;;;;5073263;28;20397;-75
2022/02/12 03:51:09;;;;;;;7.50;2.00;;;22.40;99.90;;;;;;5072693;28;20021;-76
2022/02/12 03:53:36;;;;;;;8.60;2.05;;;22.60;99.90;;;;;;5072748;28;20029;-76
2022/02/12 03:56:04;;;;;;;6.35;1.80;;;22.50;99.90;;;;;;5071722;28;20025;-74
2022/02/12 03:58:31;;;;;;;10.30;1.70;;;22.60;99.90;;;;;;5071694;28;20028;-76
2022/02/12 04:00:58;;;;;;;10.57;2.33;;;22.50;99.90;;;;;;5071689;28;20024;-75
2022/02/12 04:03:26;;;;;;;13.30;1.90;;;22.40;99.90;;;;;;5073089;28;20404;-76
2022/02/12 04:05:53;;;;;;;11.52;2.42;;;22.40;99.90;;;;;;5073037;28;20032;-76
2022/02/12 04:08:23;;;;;;;7.10;1.63;;;22.30;99.90;;;;;;5071904;28;20397;-76
2022/02/12 04:10:52;;;;;;;9.02;2.05;;;22.40;99.90;;;;;;5073319;28;20032;-75
2022/02/12 04:13:20;;;;;;;10.32;1.70;;;22.60;99.90;;;;;;5071655;28;20032;-74
2022/02/12 04:15:48;;;;;;;9.07;1.55;;;22.90;99.90;;;;;;5072941;28;20397;-75
2022/02/12 04:18:16;;;;;;;8.55;1.10;;;22.80;99.90;;;;;;5071538;28;20032;-76
2022/02/12 04:20:44;;;;;;;8.60;1.92;;;22.70;99.90;;;;;;5071198;28;20067;-74
2022/02/12 04:23:12;;;;;;;8.95;2.10;;;22.60;99.90;;;;;;5072686;28;20040;-74
2022/02/12 04:25:39;;;;;;;8.88;2.00;;;22.20;99.90;;;;;;5072988;28;20035;-75
2022/02/12 04:28:09;;;;;;;10.82;2.38;;;21.90;99.90;;;;;;5072937;28;20029;-75
2022/02/12 04:30:38;;;;;;;9.57;2.63;;;21.70;99.90;;;;;;5073379;28;20025;-77
2022/02/12 04:33:06;;;;;;;9.68;2.78;;;21.60;99.90;;;;;;5071939;28;20037;-76
2022/02/12 04:35:34;;;;;;;9.55;2.33;;;21.40;99.90;;;;;;5071526;28;20393;-77
2022/02/12 04:38:02;;;;;;;9.88;2.25;;;21.50;99.90;;;;;;5071786;28;20119;-77
2022/02/12 04:40:31;;;;;;;9.95;2.10;;;21.60;99.90;;;;;;5073126;28;20027;-75
2022/02/12 04:42:59;;;;;;;7.70;2.00;;;21.40;99.90;;;;;;5072613;28;20024;-75
2022/02/12 04:45:26;;;;;;;9.93;2.33;;;21.30;99.90;;;;;;5071652;28;20129;-76
2022/02/12 04:47:54;;;;;;;7.40;1.95;;;21.00;99.90;;;;;;5071540;28;20033;-75
2022/02/12 04:50:22;;;;;;;9.43;1.67;;;20.70;99.90;;;;;;5071397;28;20093;-74
2022/02/12 04:52:49;;;;;;;9.05;2.35;;;20.60;99.90;;;;;;5071189;28;20056;-75
2022/02/12 04:55:16;;;;;;;11.18;3.13;;;20.60;99.90;;;;;;5072721;28;20028;-73
2022/02/12 04:57:44;;;;;;;12.60;3.30;;;20.50;99.90;;;;;;5072420;28;20507;-74
2022/02/12 05:00:12;;;;;;;9.95;3.30;;;20.40;99.90;;;;;;5072619;28;20474;-74
2022/02/12 05:02:42;;;;;;;14.00;3.70;;;20.20;99.90;;;;;;5072787;28;20155;-75
2022/02/12 05:05:10;;;;;;;11.43;3.13;;;20.00;99.90;;;;;;5076137;28;20024;-76
2022/02/12 05:07:40;;;;;;;11.65;3.55;;;20.00;99.90;;;;;;5075981;28;20109;-76
2022/02/12 05:10:09;;;;;;;11.27;3.78;;;20.00;99.90;;;;;;5074841;28;20078;-76
2022/02/12 05:12:36;;;;;;;8.95;2.78;;;19.90;99.90;;;;;;5074599;28;20527;-77
2022/02/12 05:15:04;;;;;;;10.13;2.40;;;20.00;99.90;;;;;;5074616;28;20020;-77
2022/02/12 05:17:31;;;;;;;13.10;2.83;;;20.00;99.90;;;;;;5074355;28;20024;-76
2022/02/12 05:19:59;;;;;;;14.23;4.25;;;19.90;99.90;;;;;;5074482;28;20496;-76
2022/02/12 05:22:26;;;;;;;14.27;3.83;;;19.80;99.90;;;;;;5074494;28;20042;-76
2022/02/12 05:24:53;;;;;;;14.20;3.22;;;19.80;99.90;;;;;;5075471;28;20041;-76
2022/02/12 05:27:22;;;;;;;11.52;3.55;;;19.90;99.90;;;;;;5074322;28;20025;-76
2022/02/12 05:29:49;;;;;;;10.40;3.08;;;19.80;99.90;;;;;;5075690;28;20036;-76
2022/02/12 05:32:17;;;;;;;9.80;3.15;;;19.90;99.90;;;;;;5075673;28;20021;-76
2022/02/12 05:34:44;;;;;;;12.45;3.78;;;20.00;99.90;;;;;;5075301;28;20021;-77
2022/02/12 05:37:11;;;;;;;10.43;3.42;;;20.10;99.90;;;;;;5074092;28;20032;-76
2022/02/12 05:39:39;;;;;;;10.63;2.80;;;20.00;99.90;;;;;;5075450;28;20021;-78
2022/02/12 05:42:06;;;;;;;8.10;3.00;;;20.00;99.90;;;;;;5075443;28;20027;-77
2022/02/12 05:44:34;;;;;;;8.55;2.70;;;20.10;99.90;;;;;;5075588;28;20059;-78
2022/02/12 05:47:01;;;;;;;10.10;2.95;;;20.10;99.90;;;;;;5077235;28;20024;-79
2022/02/12 05:49:28;;;;;;;9.85;2.72;;;20.30;99.90;;;;;;5074373;28;20037;-79
2022/02/12 05:51:56;;;;;;;8.43;2.17;;;20.30;99.90;;;;;;5073947;28;20119;-79
2022/02/12 05:54:23;;;;;;;10.95;2.55;;;20.20;99.90;;;;;;5075234;28;20024;-76
2022/02/12 05:56:51;;;;;;;12.75;2.72;;;20.30;99.90;;;;;;5075340;28;20025;-77
2022/02/12 05:59:19;;;;;;;10.10;2.10;;;20.20;99.90;;;;;;5057545;28;20036;-75
2022/02/12 06:01:47;;;;;;;9.70;3.03;;;20.10;99.90;;;;;;5074819;28;20485;-75
2022/02/12 06:04:14;;;;;;;10.25;4.50;;;20.00;99.90;;;;;;5073408;28;20021;-76
2022/02/12 06:06:42;;;;;;;9.65;4.05;;;20.00;99.90;;;;;;5073547;28;20042;-76
2022/02/12 06:09:09;;;;;;;9.05;3.75;;;20.20;99.90;;;;;;5074784;28;20085;-77
2022/02/12 06:11:37;;;;;;;9.18;2.75;;;20.30;99.90;;;;;;5074703;28;20020;-77
2022/02/12 06:14:04;;;;;;;5.07;1.50;;;20.40;99.90;;;;;;5074507;28;20016;-77
2022/02/12 06:16:32;;;;;;;8.75;2.47;;;20.50;99.90;;;;;;5074014;28;20081;-77
2022/02/12 06:18:59;;;;;;;7.50;2.35;;;20.50;99.90;;;;;;5074623;28;20021;-75
2022/02/12 06:21:26;;;;;;;10.45;2.38;;;20.60;99.90;;;;;;5074432;28;20021;-75
2022/02/12 06:23:54;;;;;;;7.53;2.10;;;20.80;99.90;;;;;;5074510;28;20414;-75
2022/02/12 06:26:21;;;;;;;9.52;2.90;;;21.10;99.90;;;;;;5073247;28;20025;-74
2022/02/12 06:28:52;;;;;;;7.95;2.55;;;21.20;99.90;;;;;;5074370;28;20103;-75
2022/02/12 06:31:19;;;;;;;5.30;2.15;;;21.30;99.90;;;;;;5073137;28;20031;-77
2022/02/12 06:33:46;;;;;;;5.82;1.83;;;21.30;99.90;;;;;;5072966;28;20025;-77
2022/02/12 06:36:14;;;;;;;7.72;1.90;;;21.40;99.90;;;;;;5074561;28;20397;-76
2022/02/12 06:38:41;;;;;;;6.38;1.60;;;21.50;99.90;;;;;;5072835;28;20020;-75
2022/02/12 06:41:09;;;;;;;9.27;2.13;;;21.40;99.90;;;;;;5074328;28;20493;-75
2022/02/12 06:43:36;;;;;;;5.30;1.35;;;21.30;99.90;;;;;;5074198;28;20066;-74
2022/02/12 06:46:03;;;;;;;6.45;2.10;;;21.30;99.90;;;;;;5072819;28;20049;-75
2022/02/12 06:48:33;;;;;;;7.50;1.80;;;21.30;99.90;;;;;;5074026;28;20025;-75
2022/02/12 06:51:00;;;;;;;7.45;2.03;;;21.20;99.90;;;;;;5073768;28;20436;-74
2022/02/12 06:53:28;;;;;;;8.68;2.38;;;21.00;99.90;;;;;;5073902;28;20473;-77
2022/02/12 06:55:55;;;;;;;8.30;2.28;;;20.80;99.90;;;;;;5073952;28;20031;-77
2022/02/12 06:58:23;;;;;;;7.30;2.38;;;20.40;99.90;;;;;;5073963;28;20032;-76
2022/02/12 07:00:50;;;;;;;8.07;2.10;;;20.20;99.90;;;;;;5072644;28;20393;-76
2022/02/12 07:03:17;;;;;;;8.85;2.70;;;19.90;99.90;;;;;;5073918;28;20048;-76
2022/02/12 07:05:45;;;;;;;9.93;2.50;;;20.00;99.90;;;;;;5073713;28;20013;-77
2022/02/12 07:08:12;;;;;;;12.18;2.63;;;20.10;99.90;;;;;;5072416;28;20063;-77
2022/02/12 07:10:39;;;;;;;12.63;2.40;;;20.10;99.90;;;;;;5073589;28;20423;-75
2022/02/12 07:13:07;;;;;;;12.55;3.30;;;19.90;99.90;;;;;;5073659;28;20016;-76
2022/02/12 07:15:34;;;;;;;16.80;4.18;;;19.80;99.90;;;;;;5072235;28;20031;-76
2022/02/12 07:18:03;;;;;;;15.32;3.95;;;19.90;99.90;;;;;;5072187;28;20024;-76
2022/02/12 07:20:30;;;;;;;12.80;3.65;;;20.00;99.90;;;;;;5072126;28;20458;-76
2022/02/12 07:22:58;;;;;;;12.38;3.63;;;20.00;99.90;;;;;;5073522;28;20043;-76
2022/02/12 07:25:25;;;;;;;8.32;2.92;;;20.00;99.90;;;;;;5071996;28;20046;-75
2022/02/12 07:27:57;;;;;;;9.95;2.47;;;20.00;99.90;;;;;;5073476;28;20031;-76
2022/02/12 07:30:24;;;;;;;11.93;3.45;;;19.90;99.90;;;;;;5072234;28;20486;-76
2022/02/12 07:32:52;;;;;;;13.13;3.58;;;20.00;99.90;;;;;;5071997;28;20112;-76
2022/02/12 07:35:20;;;;;;;14.80;4.20;;;20.00;99.90;;;;;;5071901;28;20512;-75
2022/02/12 07:37:49;;;;;;;10.23;2.60;;;19.90;99.90;;;;;;5071805;28;20029;-76
2022/02/12 07:40:19;;;;;;;11.93;3.00;;;19.80;99.90;;;;;;5072032;28;20074;-76
2022/02/12 07:42:49;;;;;;;12.18;3.00;;;19.80;99.90;;;;;;5073357;28;20024;-76
2022/02/12 07:45:17;;;;;;;9.90;3.58;;;19.90;99.90;;;;;;5071539;28;20550;-76
2022/02/12 07:47:45;;;;;;;11.52;3.38;;;19.90;99.90;;;;;;5071871;28;20500;-75
2022/02/12 07:50:15;;;;;;;11.27;4.28;;;19.90;99.90;;;;;;5071962;28;20032;-76
2022/02/12 07:52:43;;;;;;;13.00;5.05;;;19.90;99.90;;;;;;5071842;28;20031;-75
2022/02/12 07:55:11;;;;;;;13.05;4.20;;;19.90;99.90;;;;;;5071937;28;20060;-75
2022/02/12 07:57:39;;;;;;;13.13;5.10;;;19.90;99.90;;;;;;5073106;28;20035;-77
2022/02/12 08:00:08;;;;;;;9.98;3.13;;;19.90;99.90;;;;;;5072035;28;20074;-76
2022/02/12 08:02:35;;;;;;;9.57;3.63;;;19.80;99.90;;;;;;5071701;28;20030;-76
2022/02/12 08:05:03;;;;;;;12.30;3.25;;;19.80;99.90;;;;;;5071703;28;20024;-76
2022/02/12 08:07:31;;;;;;;10.40;2.78;;;19.80;99.90;;;;;;5073009;28;20025;-76
2022/02/12 08:13:07;;;;;;;13.95;3.50;;;19.70;99.90;;;;;;5062515;28;20039;-76
2022/02/12 08:15:35;;;;;;;10.63;3.25;;;19.70;99.90;;;;;;5071712;28;20025;-76
2022/02/12 08:18:02;;;;;;;9.25;2.97;;;19.60;99.90;;;;;;5072720;28;20158;-74
2022/02/12 08:20:30;;;;;;;13.93;4.50;;;19.70;99.90;;;;;;5071563;28;20071;-75
2022/02/12 08:22:57;;;;;;;16.00;5.68;;;19.70;99.90;;;;;;5072877;28;20104;-75
2022/02/12 08:25:25;;;;;;;10.95;4.57;;;19.60;99.90;;;;;;5072659;28;20048;-74
2022/02/12 08:27:52;;;;;;;13.38;4.03;;;19.60;99.90;;;;;;5071487;28;20070;-75
2022/02/12 08:30:20;;;;;;;15.10;4.22;;;19.60;99.90;;;;;;5072755;28;20031;-75
2022/02/12 08:32:47;;;;;;;15.18;4.43;;;19.40;99.90;;;;;;5072653;28;20021;-75
2022/02/12 08:35:15;;;;;;;11.75;3.80;;;19.40;99.90;;;;;;5072849;28;20025;-74
2022/02/12 08:37:44;;;;;;;14.05;3.28;;;19.40;99.90;;;;;;5072777;28;20024;-74
2022/02/12 08:40:18;;;;;;;14.20;3.28;;;19.40;99.90;;;;;;5075254;28;20027;-76
2022/02/12 08:42:48;;;;;;;12.90;3.85;;;19.30;99.90;;;;;;5076395;28;20013;-74
2022/02/12 08:45:16;;;;;;;16.20;5.40;;;19.40;99.90;;;;;;5076450;28;20025;-75
2022/02/12 08:47:46;;;;;;;15.30;4.63;;;19.20;99.90;;;;;;5075013;28;20850;-75
2022/02/12 08:50:15;;;;;;;14.85;6.15;;;19.20;99.90;;;;;;5076396;28;20052;-74
2022/02/12 08:52:43;;;;;;;15.32;7.43;;;19.20;99.90;;;;;;5074914;28;20446;-76
2022/02/12 08:55:13;;;;;;;13.45;5.55;;;19.10;99.90;;;;;;5076327;28;20152;-74
2022/02/12 08:57:41;;;;;;;9.73;3.97;;;19.00;99.90;;;;;;5074615;28;20029;-76
2022/02/12 09:00:11;;;;;;;15.23;5.00;;;19.00;99.90;;;;;;5076089;28;20023;-76
2022/02/12 09:02:38;;;;;;;12.23;4.03;;;19.00;99.90;;;;;;5075957;28;20020;-75
2022/02/12 09:05:06;;;;;;;10.18;4.70;;;18.90;99.90;;;;;;5076032;28;20029;-75
2022/02/12 09:07:33;;;;;;;9.75;3.80;;;18.80;99.90;;;;;;5075928;28;20553;-76
2022/02/12 09:10:01;;;;;;;7.38;2.88;;;18.80;99.90;;;;;;5076064;28;20103;-75
2022/02/12 09:12:29;;;;;;;9.05;2.13;;;18.70;99.90;;;;;;5074767;28;20020;-75
2022/02/12 09:14:57;;;;;;;5.93;2.65;;;18.60;99.90;;;;;;5074786;28;20618;-73
2022/02/12 09:17:24;;;;;;;6.10;2.45;;;18.60;99.90;;;;;;5075809;28;20075;-75
2022/02/12 09:19:55;;;;;;;6.75;2.70;;;18.60;99.90;;;;;;5075936;28;20074;-76
2022/02/12 09:22:22;;;;;;;8.52;3.50;;;18.60;99.90;;;;;;5074498;28;20021;-75
2022/02/12 09:24:51;;;;;;;9.88;4.70;;;18.60;99.90;;;;;;5074249;28;20424;-76
2022/02/12 09:27:19;;;;;;;11.40;6.68;;;18.60;99.90;;;;;;5074645;28;20035;-76
2022/02/12 09:29:48;;;;;;;9.23;5.82;;;18.60;99.90;;;;;;5074438;28;20505;-76
2022/02/12 09:32:15;;;;;;;9.05;4.57;;;18.50;99.90;;;;;;5074437;28;20028;-76
2022/02/12 09:34:43;;;;;;;9.95;3.55;;;18.50;99.90;;;;;;5075685;28;20043;-76
2022/02/12 09:37:10;;;;;;;7.90;3.38;;;18.50;99.90;;;;;;5074220;28;20032;-76
2022/02/12 09:39:38;;;;;;;7.97;4.30;;;18.50;99.90;;;;;;5075513;28;20028;-77
2022/02/12 09:42:05;;;;;;;9.38;4.47;;;18.50;99.90;;;;;;5074202;28;20032;-76
2022/02/12 09:44:33;;;;;;;10.38;4.53;;;18.50;99.90;;;;;;5074004;28;20021;-75
2022/02/12 09:47:24;;;;;;;5.72;2.17;;;18.50;99.90;;;;;;5074035;28;20029;-73
2022/02/12 09:49:56;;;;;;;4.20;2.10;;;18.40;99.90;;;;;;5072742;28;20032;-73
2022/02/12 09:52:29;;;;;;;6.85;2.38;;;18.40;99.90;;;;;;5075286;28;20033;-74
2022/02/12 09:54:57;;;;;;;6.43;2.33;;;18.40;99.90;;;;;;5075108;28;20115;-73
2022/02/12 09:57:24;;;;;;;6.13;3.05;;;18.40;99.90;;;;;;5074952;28;20059;-74
2022/02/12 10:00:01;;;;;;;5.63;2.67;;;18.40;99.90;;;;;;5074909;28;20020;-73
2022/02/12 10:02:28;;;;;;;6.90;2.47;;;18.40;99.90;;;;;;5073504;28;20098;-75
2022/02/12 10:05:17;;;;;;;4.50;1.75;;;18.40;99.90;;;;;;5074737;28;20024;-74
2022/02/12 10:07:46;;;;;;;5.28;1.75;;;18.40;99.90;;;;;;5074986;28;20033;-75
2022/02/12 10:10:18;;;;;;;5.70;1.75;;;18.50;99.90;;;;;;5074632;28;20493;-73
2022/02/12 10:12:47;;;;;;;6.35;2.30;;;18.50;99.90;;;;;;5074610;28;20024;-74
2022/02/12 10:15:24;;;;;;;7.68;3.08;;;18.50;99.90;;;;;;5074828;28;20107;-75
2022/02/12 10:17:57;;;;;;;6.45;2.53;;;18.50;99.90;;;;;;5073250;28;20020;-74
2022/02/12 10:20:26;;;;;;;3.65;2.30;;;18.40;99.90;;;;;;5074546;28;20021;-74
2022/02/12 10:23:01;;;;;;;5.35;2.40;;;18.30;99.90;;;;;;5073166;28;20032;-74
2022/02/12 10:25:28;;;;;;;6.05;2.55;;;18.40;99.90;;;;;;5074328;28;20064;-74
2022/02/12 10:27:56;;;;;;;6.57;2.80;;;18.40;99.90;;;;;;5074637;28;20098;-74
2022/02/12 10:30:30;;;;;;;5.97;2.97;;;18.40;99.90;;;;;;5074600;28;20055;-75
2022/02/12 10:33:05;;;;;;;8.65;3.58;;;18.30;99.90;;;;;;5073471;28;20481;-75
2022/02/12 10:35:34;;;;;;;11.63;3.95;;;18.40;99.90;;;;;;5074350;28;20021;-74
2022/02/12 10:38:15;;;;;;;7.35;2.90;;;18.40;99.90;;;;;;5072995;28;20036;-74
2022/02/12 10:41:03;;;;;;;6.47;2.78;;;18.30;99.90;;;;;;5072947;28;20052;-74
2022/02/12 10:43:31;;;;;;;7.45;3.22;;;18.30;99.90;;;;;;5072884;28;20128;-74
2022/02/12 10:45:59;;;;;;;6.15;2.92;;;18.40;99.90;;;;;;5074225;28;20018;-73
2022/02/12 10:48:26;;;;;;;7.40;2.45;;;18.30;99.90;;;;;;5074157;28;20039;-73
2022/02/12 10:51:00;;;;;;;5.55;2.30;;;18.30;99.90;;;;;;5072657;28;20021;-73
2022/02/12 10:53:28;;;;;;;4.05;2.17;;;18.20;99.90;;;;;;5073940;28;20025;-74
2022/02/12 10:56:13;;;;;;;7.40;2.40;;;18.20;99.90;;;;;;5074013;28;20431;-74
2022/02/12 10:58:41;;;;;;;4.93;2.33;;;18.20;99.90;;;;;;5073803;28;20448;-75
2022/02/12 11:01:09;;;;;;;6.63;2.00;;;18.30;99.90;;;;;;5072069;28;20070;-75
2022/02/12 11:03:37;;;;;;;8.00;2.50;;;18.30;99.90;;;;;;5073717;28;20077;-75
2022/02/12 11:06:06;;;;;;;7.57;2.40;;;18.30;99.90;;;;;;5072852;28;20398;-74
2022/02/12 11:08:34;;;;;;;5.75;2.13;;;18.30;99.90;;;;;;5073828;28;20063;-75
2022/02/12 11:11:01;;;;;;;6.82;3.15;;;18.30;99.90;;;;;;5073629;28;20017;-74
2022/02/12 11:13:31;;;;;;;5.88;2.90;;;18.20;99.90;;;;;;5073782;28;20265;-75
2022/02/12 11:15:59;;;;;;;7.78;3.22;;;18.20;99.90;;;;;;5073751;28;20032;-74
2022/02/12 11:18:28;;;;;;;7.65;3.05;;;18.20;99.90;;;;;;5072221;28;20029;-74
2022/02/12 11:20:56;;;;;;;8.63;3.10;;;18.30;99.90;;;;;;5073615;28;20024;-76
2022/02/12 11:23:27;;;;;;;6.95;2.75;;;18.30;99.90;;;;;;5073453;28;20581;-75
2022/02/12 11:26:03;;;;;;;7.63;2.95;;;18.30;99.90;;;;;;5072356;28;20074;-73
2022/02/12 11:28:32;;;;;;;11.63;3.08;;;18.30;99.90;;;;;;5073767;28;20028;-74
2022/02/12 11:31:27;;;;;;;9.07;3.00;;;18.30;99.90;;;;;;5072231;28;20409;-74
2022/02/12 11:34:17;;;;;;;8.70;3.45;;;18.30;99.90;;;;;;5073876;28;20477;-75
2022/02/12 11:36:48;;;;;;;8.93;3.03;;;18.40;99.90;;;;;;5073460;28;20047;-75
2022/02/12 11:39:20;;;;;;;8.20;3.15;;;18.30;99.90;;;;;;5072067;28;20021;-74
2022/02/12 11:41:52;;;;;;;10.15;3.15;;;18.30;99.90;;;;;;5073511;28;20021;-75
2022/02/12 11:44:49;;;;;;;7.15;3.42;;;18.30;99.90;;;;;;5071910;28;20377;-75
2022/02/12 11:47:17;;;;;;;9.80;4.03;;;18.30;99.90;;;;;;5071704;28;20064;-75
2022/02/12 11:49:45;;;;;;;10.88;2.67;;;18.30;99.90;;;;;;5073102;28;20024;-75
2022/02/12 11:52:41;;;;;;;11.23;3.53;;;18.40;99.90;;;;;;5071868;28;20138;-75
2022/02/12 11:55:08;;;;;;;11.45;3.63;;;18.30;99.90;;;;;;5072966;28;20393;-75
2022/02/12 11:57:36;;;;;;;11.25;3.53;;;18.40;99.90;;;;;;5071714;28;20028;-74
2022/02/12 12:00:03;;;;;;;8.65;2.75;;;18.30;99.90;;;;;;5071846;28;20028;-76
2022/02/12 12:02:45;;;;;;;9.63;2.83;;;18.30;99.90;;;;;;5073140;28;20386;-74
2022/02/12 12:05:23;;;;;;;8.32;2.83;;;18.30;99.90;;;;;;5071698;28;20512;-75
2022/02/12 12:08:00;;;;;;;9.57;2.70;;;18.30;99.90;;;;;;5073123;28;20043;-75
2022/02/12 12:10:36;;;;;;;9.10;2.20;;;18.40;99.90;;;;;;5073028;28;20029;-75
2022/02/12 12:13:12;;;;;;;9.18;2.67;;;18.40;99.90;;;;;;5072580;28;20090;-75
2022/02/12 12:15:50;;;;;;;11.38;3.20;;;18.40;99.90;;;;;;5077212;28;20029;-74
2022/02/12 12:18:17;;;;;;;12.15;2.97;;;18.40;99.90;;;;;;5075664;28;20025;-76
2022/02/12 12:20:46;;;;;;;10.30;2.97;;;18.40;99.90;;;;;;5077011;28;20104;-75
2022/02/12 12:23:15;;;;;;;16.10;3.90;;;18.50;99.90;;;;;;5076708;28;20095;-75
2022/02/12 12:26:05;;;;;;;13.45;4.88;;;18.50;99.90;;;;;;5077045;28;20025;-75
2022/02/12 12:28:40;;;;;;;12.82;3.42;;;18.50;99.90;;;;;;5077045;28;20032;-76
2022/02/12 12:31:10;;;;;;;11.60;3.08;;;18.50;99.90;;;;;;5076662;28;20029;-75
2022/02/12 12:33:45;;;;;;;10.43;3.60;;;18.40;99.90;;;;;;5076683;28;20398;-75
2022/02/12 12:36:16;;;;;;;9.25;2.95;;;18.50;99.90;;;;;;5076757;28;20028;-76
2022/02/12 12:38:48;;;;;;;10.77;3.08;;;18.50;99.90;;;;;;5076510;28;20028;-75
2022/02/12 12:41:21;;;;;;;11.32;2.88;;;18.50;99.90;;;;;;5075281;28;20434;-75
2022/02/12 12:44:04;;;;;;;9.27;2.70;;;18.50;99.90;;;;;;5076521;28;20439;-76
2022/02/12 12:46:33;;;;;;;11.38;3.05;;;18.60;99.90;;;;;;5076562;28;20020;-76
2022/02/12 12:49:00;;;;;;;9.85;2.58;;;18.60;99.90;;;;;;5076369;28;20025;-75
2022/02/12 12:51:28;;;;;;;10.55;2.90;;;18.60;99.90;;;;;;5076303;28;20025;-75
2022/02/12 12:53:55;;;;;;;12.10;3.17;;;18.60;99.90;;;;;;5076268;28;20393;-75
2022/02/12 12:56:27;;;;;;;12.43;2.90;;;18.60;99.90;;;;;;5076392;28;20103;-75
2022/02/12 12:59:09;;;;;;;10.40;3.72;;;18.60;99.90;;;;;;5076301;28;20028;-75
2022/02/12 13:01:56;;;;;;;8.32;3.10;;;18.70;99.90;;;;;;5074901;28;20020;-75